Time;durP1;ratioP1;P1;durP2;ratioP2;P2;SDS_P1;SDS_P2;PMS_P1;PMS_P2;Temp;Humidity;BMP_temperature;BMP_pressure;BME280_temperature;BME280_humidity;BME280_pressure;Samples;Min_cycle;Max_cycle;Signal;HPM_P1;HPM_P2
2023/12/09 00:00:36;;;;;;;48.40;23.35;;;;;;;5.52;88.77;101188.94;7392243;19;20354;-58
2023/12/09 00:03:06;;;;;;;60.17;24.88;;;;;;;5.55;88.89;101185.34;7394871;19;20014;-59
2023/12/09 00:05:35;;;;;;;53.88;23.83;;;;;;;5.58;88.46;101186.03;7392716;19;20015;-56
2023/12/09 00:08:04;;;;;;;50.58;22.73;;;;;;;5.57;88.53;101176.47;7391504;19;20022;-60
2023/12/09 00:10:31;;;;;;;48.33;22.73;;;;;;;5.62;88.47;101182.34;7392115;19;20049;-60
2023/12/09 00:12:59;;;;;;;51.83;23.60;;;;;;;5.60;88.38;101183.34;7392460;19;20033;-57
2023/12/09 00:15:27;;;;;;;54.22;24.52;;;;;;;5.51;88.75;101179.38;7390112;19;20018;-58
2023/12/09 00:17:55;;;;;;;57.45;23.38;;;;;;;5.55;88.76;101180.94;7392807;19;20019;-58
2023/12/09 00:20:23;;;;;;;56.65;24.92;;;;;;;5.53;88.58;101168.78;7389312;19;20015;-57
2023/12/09 00:22:51;;;;;;;49.63;23.73;;;;;;;5.51;88.69;101166.22;7390207;19;20025;-58
2023/12/09 00:25:18;;;;;;;48.75;23.40;;;;;;;5.57;88.84;101172.97;7392186;19;20022;-59
2023/12/09 00:27:46;;;;;;;49.53;23.45;;;;;;;5.58;88.76;101167.66;7391766;19;20020;-58
2023/12/09 00:30:14;;;;;;;52.22;22.92;;;;;;;5.65;88.65;101159.47;7390497;19;20355;-58
2023/12/09 00:32:42;;;;;;;50.05;23.13;;;;;;;5.60;89.08;101163.16;7391577;19;20356;-59
2023/12/09 00:35:10;;;;;;;48.20;22.55;;;;;;;5.54;89.10;101150.34;7391484;19;20460;-59
2023/12/09 00:37:40;;;;;;;47.30;22.75;;;;;;;5.59;89.21;101161.47;7391687;19;20413;-61
2023/12/09 00:40:09;;;;;;;47.30;22.73;;;;;;;5.56;89.60;101150.25;7389658;19;20492;-59
2023/12/09 00:42:36;;;;;;;43.75;21.30;;;;;;;5.47;90.46;101155.94;7388496;19;20019;-60
2023/12/09 00:45:05;;;;;;;42.47;20.38;;;;;;;5.63;90.10;101170.91;7388114;19;20022;-58
2023/12/09 00:47:33;;;;;;;47.17;22.00;;;;;;;5.65;89.74;101165.59;7389167;19;20434;-57
2023/12/09 00:50:01;;;;;;;43.92;21.15;;;;;;;5.62;90.14;101163.13;7388833;19;20023;-60
2023/12/09 00:52:29;;;;;;;47.33;21.25;;;;;;;5.69;90.21;101169.78;7388039;19;20081;-61
2023/12/09 00:54:58;;;;;;;37.45;19.45;;;;;;;5.76;90.15;101173.84;7390211;19;20014;-62
2023/12/09 00:57:25;;;;;;;43.08;20.73;;;;;;;5.90;89.61;101167.06;7390840;19;20495;-62
2023/12/09 00:59:54;;;;;;;41.03;20.25;;;;;;;5.90;89.48;101159.19;7389692;19;20029;-61
2023/12/09 01:02:22;;;;;;;42.42;21.33;;;;;;;5.87;89.18;101174.16;7391459;19;20027;-61
2023/12/09 01:04:50;;;;;;;37.00;19.95;;;;;;;5.87;89.63;101170.69;7391088;19;20031;-62
2023/12/09 01:07:18;;;;;;;42.17;20.23;;;;;;;5.92;89.68;101170.50;7390869;19;20018;-62
2023/12/09 01:09:46;;;;;;;40.13;20.98;;;;;;;5.97;89.79;101166.72;7388346;19;20034;-61
2023/12/09 01:12:14;;;;;;;40.28;20.63;;;;;;;6.02;89.60;101171.75;7390784;19;20015;-62
2023/12/09 01:14:42;;;;;;;43.47;20.55;;;;;;;5.93;89.66;101167.81;7390214;19;20018;-61
2023/12/09 01:17:10;;;;;;;41.17;20.67;;;;;;;5.95;89.88;101170.34;7390855;19;20082;-61
2023/12/09 01:19:38;;;;;;;44.22;22.30;;;;;;;5.98;89.98;101183.34;7390302;19;20014;-61
2023/12/09 01:22:05;;;;;;;39.33;20.27;;;;;;;6.03;89.59;101176.13;7389614;19;20290;-61
2023/12/09 01:24:33;;;;;;;44.83;22.02;;;;;;;6.05;89.59;101175.09;7390100;19;20034;-61
2023/12/09 01:27:01;;;;;;;42.63;21.52;;;;;;;6.02;89.33;101179.66;7393898;19;20015;-61
2023/12/09 01:29:29;;;;;;;48.65;21.52;;;;;;;6.04;89.85;101178.66;7395349;19;20018;-61
2023/12/09 01:31:57;;;;;;;44.67;21.85;;;;;;;6.08;89.99;101179.38;7397256;19;20024;-61
2023/12/09 01:34:24;;;;;;;43.90;21.08;;;;;;;6.17;89.96;101185.94;7397397;19;20338;-61
2023/12/09 01:36:54;;;;;;;47.42;22.73;;;;;;;6.14;89.71;101179.06;7397762;19;20015;-60
2023/12/09 01:39:21;;;;;;;46.55;22.80;;;;;;;6.17;90.03;101184.16;7397240;19;20585;-59
2023/12/09 01:41:49;;;;;;;44.83;22.42;;;;;;;6.19;89.95;101179.69;7393873;19;20015;-61
2023/12/09 01:44:17;;;;;;;48.95;22.45;;;;;;;6.24;90.07;101176.84;7395295;19;20014;-60
2023/12/09 01:46:46;;;;;;;43.63;22.42;;;;;;;6.24;89.68;101172.44;7397001;19;20022;-61
2023/12/09 01:49:14;;;;;;;47.05;20.98;;;;;;;6.28;89.65;101173.13;7395479;19;20035;-61
2023/12/09 01:51:43;;;;;;;46.63;21.35;;;;;;;6.29;89.44;101169.56;7393570;19;20025;-60
2023/12/09 01:54:11;;;;;;;49.42;22.77;;;;;;;6.25;89.62;101171.50;7396696;19;20015;-61
2023/12/09 01:56:39;;;;;;;44.83;22.20;;;;;;;6.29;90.04;101169.56;7396593;19;20092;-61
2023/12/09 01:59:07;;;;;;;45.35;22.40;;;;;;;6.20;90.14;101162.16;7396697;19;20035;-61
2023/12/09 02:01:35;;;;;;;43.97;21.65;;;;;;;6.18;90.13;101154.34;7393451;19;20039;-61
2023/12/09 02:04:04;;;;;;;49.40;23.45;;;;;;;6.24;90.39;101159.28;7396816;19;20018;-61
2023/12/09 02:06:33;;;;;;;41.78;22.55;;;;;;;6.29;90.11;101151.16;7396453;19;20023;-60
2023/12/09 02:09:01;;;;;;;46.53;23.20;;;;;;;6.37;90.27;101149.00;7394034;19;20022;-60
2023/12/09 02:11:50;;;;;;;49.40;23.25;;;;;;;6.38;90.12;101140.19;7394149;19;20044;-61
2023/12/09 02:14:32;;;;;;;49.28;23.77;;;;;;;6.38;90.01;101139.34;7396159;19;20035;-61
2023/12/09 02:17:30;;;;;;;43.50;22.40;;;;;;;6.47;89.73;101147.63;7396281;19;20025;-60
2023/12/09 02:20:00;;;;;;;45.65;22.42;;;;;;;6.42;89.77;101147.00;7393995;19;20018;-60
2023/12/09 02:22:29;;;;;;;49.47;23.77;;;;;;;6.42;89.87;101140.91;7398262;19;20015;-60
2023/12/09 02:24:56;;;;;;;41.92;21.38;;;;;;;6.37;90.25;101151.63;7398976;19;20078;-60
2023/12/09 02:27:31;;;;;;;44.55;22.90;;;;;;;6.46;90.02;101139.81;7398748;19;20014;-60
2023/12/09 02:30:13;;;;;;;50.50;23.50;;;;;;;6.41;90.32;101142.69;7394238;19;20018;-61
2023/12/09 02:32:41;;;;;;;47.30;23.52;;;;;;;6.37;90.62;101150.78;7396285;19;20016;-61
2023/12/09 02:35:11;;;;;;;53.13;24.20;;;;;;;6.39;90.39;101134.00;7396835;19;20463;-61
2023/12/09 02:37:39;;;;;;;43.55;23.17;;;;;;;6.39;90.37;101136.63;7395949;19;20019;-61
2023/12/09 02:40:11;;;;;;;46.78;24.27;;;;;;;6.40;90.46;101127.81;7393441;19;20030;-61
2023/12/09 02:42:39;;;;;;;50.33;24.25;;;;;;;6.39;90.61;101128.75;7395921;19;20010;-62
2023/12/09 02:45:08;;;;;;;47.20;22.95;;;;;;;6.42;90.38;101130.38;7394326;19;20479;-61
2023/12/09 02:47:35;;;;;;;46.38;22.23;;;;;;;6.41;90.44;101129.53;7395243;19;20021;-62
2023/12/09 02:50:04;;;;;;;46.33;23.73;;;;;;;6.44;90.17;101125.88;7392634;19;20018;-62
2023/12/09 02:52:32;;;;;;;48.53;24.48;;;;;;;6.41;90.46;101137.44;7395130;19;20026;-62
2023/12/09 02:55:00;;;;;;;48.05;23.33;;;;;;;6.48;90.48;101135.31;7393484;19;20372;-61
2023/12/09 02:57:28;;;;;;;49.55;23.42;;;;;;;6.48;90.23;101137.94;7394859;19;20025;-62
2023/12/09 02:59:56;;;;;;;44.30;22.02;;;;;;;6.42;90.38;101133.00;7393946;19;20656;-61
2023/12/09 03:02:24;;;;;;;48.80;23.35;;;;;;;6.38;91.09;101129.69;7393626;19;20022;-60
2023/12/09 03:04:52;;;;;;;43.88;22.08;;;;;;;6.38;91.09;101123.56;7395584;19;20043;-60
2023/12/09 03:07:20;;;;;;;46.63;23.50;;;;;;;6.45;90.66;101114.41;7393132;19;20455;-62
2023/12/09 03:09:48;;;;;;;45.88;22.15;;;;;;;6.38;91.00;101115.69;7393760;19;20019;-62
2023/12/09 03:12:16;;;;;;;53.13;23.42;;;;;;;6.37;91.14;101116.59;7395016;19;20018;-62
2023/12/09 03:14:44;;;;;;;45.03;21.70;;;;;;;6.45;91.18;101117.03;7395684;19;20019;-61
2023/12/09 03:17:12;;;;;;;48.92;23.25;;;;;;;6.49;91.21;101119.47;7395069;19;20043;-60
2023/12/09 03:19:41;;;;;;;50.88;23.10;;;;;;;6.49;91.28;101121.25;7394921;19;20326;-60
2023/12/09 03:22:08;;;;;;;46.45;22.38;;;;;;;6.52;91.66;101121.91;7395470;19;20026;-61
2023/12/09 03:24:36;;;;;;;49.97;23.50;;;;;;;6.64;90.81;101127.47;7396070;19;20056;-61
2023/12/09 03:27:04;;;;;;;47.55;24.15;;;;;;;6.54;90.96;101111.34;7395537;19;20010;-58
2023/12/09 03:29:32;;;;;;;48.28;22.92;;;;;;;6.57;91.43;101114.66;7393202;19;20014;-57
2023/12/09 03:32:00;;;;;;;51.67;24.02;;;;;;;6.58;91.21;101108.47;7393913;19;20018;-56
2023/12/09 03:34:28;;;;;;;48.28;24.60;;;;;;;6.62;91.20;101111.78;7392101;19;20467;-54
2023/12/09 03:36:56;;;;;;;49.85;23.15;;;;;;;6.63;91.21;101099.47;7394294;19;20019;-55
2023/12/09 03:39:24;;;;;;;48.22;23.90;;;;;;;6.63;91.06;101091.59;7393483;19;20014;-57
2023/12/09 03:41:52;;;;;;;44.65;22.50;;;;;;;6.65;90.94;101095.00;7394055;19;20078;-59
2023/12/09 03:44:20;;;;;;;45.92;22.55;;;;;;;6.59;91.07;101094.38;7394519;19;20027;-59
2023/12/09 03:46:48;;;;;;;41.97;22.73;;;;;;;6.59;91.39;101093.53;7393387;19;20074;-59
2023/12/09 03:49:15;;;;;;;51.45;24.40;;;;;;;6.57;91.47;101098.03;7391699;19;20081;-59
2023/12/09 03:51:43;;;;;;;43.45;22.75;;;;;;;6.59;91.22;101094.38;7391697;19;20021;-60
2023/12/09 03:54:11;;;;;;;42.60;22.02;;;;;;;6.68;91.43;101093.06;7393251;19;20085;-59
2023/12/09 03:56:39;;;;;;;44.30;21.55;;;;;;;6.75;90.93;101089.19;7393197;19;20500;-58
2023/12/09 03:59:07;;;;;;;50.00;23.65;;;;;;;6.75;90.63;101086.56;7391865;19;20014;-60
2023/12/09 04:01:35;;;;;;;43.42;21.80;;;;;;;6.69;90.82;101091.28;7391323;19;20026;-61
2023/12/09 04:04:04;;;;;;;47.03;22.88;;;;;;;6.72;90.97;101091.13;7393515;19;20018;-60
2023/12/09 04:06:32;;;;;;;45.60;22.73;;;;;;;6.65;91.12;101089.75;7394004;19;20019;-61
2023/12/09 04:09:00;;;;;;;43.95;23.33;;;;;;;6.76;91.06;101087.41;7393161;19;20014;-61
2023/12/09 04:11:29;;;;;;;40.17;22.25;;;;;;;6.76;91.02;101095.28;7391978;19;20421;-60
2023/12/09 04:13:56;;;;;;;41.97;22.60;;;;;;;6.75;90.98;101093.56;7393756;19;20038;-61
2023/12/09 04:16:24;;;;;;;44.17;21.55;;;;;;;6.66;91.37;101094.06;7393131;19;20014;-60
2023/12/09 04:18:52;;;;;;;43.20;22.85;;;;;;;6.61;91.70;101093.47;7393358;19;20018;-60
2023/12/09 04:21:20;;;;;;;39.33;21.70;;;;;;;6.69;91.64;101075.50;7391137;19;20030;-60
2023/12/09 04:23:48;;;;;;;39.85;21.88;;;;;;;6.63;91.44;101087.16;7392518;19;20018;-59
2023/12/09 04:26:16;;;;;;;47.72;21.85;;;;;;;6.57;91.83;101084.88;7392129;19;20019;-60
2023/12/09 04:28:43;;;;;;;40.92;21.75;;;;;;;6.69;91.79;101084.22;7392012;19;20018;-60
2023/12/09 04:31:11;;;;;;;40.55;21.27;;;;;;;6.74;91.31;101083.97;7390820;19;20379;-59
2023/12/09 04:33:39;;;;;;;39.58;20.55;;;;;;;6.76;91.21;101090.03;7390402;19;20015;-60
2023/12/09 04:36:07;;;;;;;40.28;20.25;;;;;;;6.78;91.09;101080.25;7392188;19;20077;-60
2023/12/09 04:38:35;;;;;;;35.60;19.92;;;;;;;6.75;91.21;101080.41;7391575;19;20032;-60
2023/12/09 04:41:04;;;;;;;37.67;19.20;;;;;;;6.78;91.13;101080.25;7389930;19;20031;-59
2023/12/09 04:43:31;;;;;;;40.78;21.27;;;;;;;6.76;91.27;101082.97;7391675;19;20015;-61
2023/12/09 04:46:00;;;;;;;37.53;19.50;;;;;;;6.77;91.24;101074.16;7390079;19;20095;-60
2023/12/09 04:48:28;;;;;;;39.03;19.58;;;;;;;6.83;91.30;101083.53;7391031;19;20406;-60
2023/12/09 04:50:56;;;;;;;37.97;19.77;;;;;;;6.85;90.86;101079.00;7388989;19;20033;-60
2023/12/09 04:53:24;;;;;;;38.47;19.80;;;;;;;6.83;90.42;101071.19;7391473;19;20031;-61
2023/12/09 04:55:52;;;;;;;37.28;18.30;;;;;;;6.86;90.79;101079.84;7391345;19;20023;-62
2023/12/09 04:58:20;;;;;;;34.97;19.05;;;;;;;6.90;91.00;101079.59;7391799;19;20489;-60
2023/12/09 05:00:47;;;;;;;38.40;19.67;;;;;;;6.86;90.78;101075.44;7389672;19;20029;-61
2023/12/09 05:03:15;;;;;;;32.10;18.05;;;;;;;6.93;90.48;101078.59;7396612;19;20045;-61
2023/12/09 05:05:43;;;;;;;35.78;18.02;;;;;;;6.92;90.69;101075.13;7396925;19;20397;-61
2023/12/09 05:08:11;;;;;;;33.33;17.77;;;;;;;6.88;90.56;101078.84;7398921;19;20010;-60
2023/12/09 05:10:39;;;;;;;36.08;17.00;;;;;;;6.78;90.65;101078.47;7394852;19;20022;-61
2023/12/09 05:13:07;;;;;;;33.65;17.50;;;;;;;6.79;90.77;101074.94;7397940;19;20018;-61
2023/12/09 05:18:15;;;;;;;36.17;16.80;;;;;;;6.88;90.60;101072.75;7398305;19;20040;-66
2023/12/09 05:20:45;;;;;;;32.10;17.10;;;;;;;6.81;90.72;101065.16;7395665;19;20018;-66
2023/12/09 05:23:12;;;;;;;34.45;16.30;;;;;;;6.83;90.83;101065.09;7398406;19;20491;-65
2023/12/09 05:25:41;;;;;;;31.75;16.60;;;;;;;6.83;90.28;101062.47;7398006;19;20029;-66
2023/12/09 05:28:10;;;;;;;32.58;17.17;;;;;;;6.75;90.92;101072.50;7397487;19;20044;-66
2023/12/09 05:30:40;;;;;;;31.33;16.13;;;;;;;6.77;90.80;101073.31;7395519;19;20018;-67
2023/12/09 05:33:08;;;;;;;29.67;14.98;;;;;;;6.80;91.01;101073.16;7397607;19;20509;-67
2023/12/09 05:35:36;;;;;;;30.90;15.57;;;;;;;6.83;90.79;101078.25;7397605;19;20018;-67
2023/12/09 05:38:04;;;;;;;28.75;15.50;;;;;;;6.88;90.11;101072.75;7397820;19;20025;-67
2023/12/09 05:40:32;;;;;;;32.72;15.35;;;;;;;6.91;90.18;101076.06;7395317;19;20022;-67
2023/12/09 05:43:02;;;;;;;25.73;14.13;;;;;;;6.87;90.29;101076.28;7395845;19;20027;-67
2023/12/09 05:45:30;;;;;;;27.58;15.15;;;;;;;6.92;89.93;101067.22;7396873;19;20011;-67
2023/12/09 05:47:58;;;;;;;28.67;13.98;;;;;;;6.91;90.02;101067.31;7395100;19;20035;-67
2023/12/09 05:50:26;;;;;;;26.42;13.88;;;;;;;6.93;89.59;101063.66;7394666;19;20015;-63
2023/12/09 05:52:54;;;;;;;27.60;13.55;;;;;;;6.92;90.03;101061.94;7397122;19;20074;-68
2023/12/09 05:55:23;;;;;;;30.15;13.85;;;;;;;6.90;89.92;101061.16;7396800;19;20032;-66
2023/12/09 05:57:51;;;;;;;24.95;13.60;;;;;;;7.01;89.58;101060.59;7396951;19;20384;-67
2023/12/09 06:00:18;;;;;;;28.40;13.10;;;;;;;6.93;89.95;101055.75;7395307;19;20040;-68
2023/12/09 06:02:46;;;;;;;24.63;12.25;;;;;;;6.94;89.73;101046.91;7396559;19;20472;-68
2023/12/09 06:05:14;;;;;;;23.55;12.15;;;;;;;6.98;89.76;101053.75;7396651;19;20374;-66
2023/12/09 06:07:42;;;;;;;26.67;12.95;;;;;;;6.95;89.74;101042.53;7396915;19;20018;-66
2023/12/09 06:10:10;;;;;;;24.65;12.20;;;;;;;6.97;89.54;101043.28;7394992;19;20026;-65
2023/12/09 06:12:41;;;;;;;27.23;11.95;;;;;;;7.01;89.48;101050.91;7394965;19;20022;-65
2023/12/09 06:15:09;;;;;;;26.65;12.18;;;;;;;7.02;89.67;101044.75;7394658;19;20498;-65
2023/12/09 06:17:37;;;;;;;26.88;11.82;;;;;;;7.02;89.28;101041.22;7396627;19;20010;-65
2023/12/09 06:20:08;;;;;;;26.05;11.57;;;;;;;6.96;89.57;101042.44;7395101;19;20051;-64
2023/12/09 06:22:36;;;;;;;27.20;12.05;;;;;;;6.91;89.90;101043.63;7396161;19;20018;-65
2023/12/09 06:25:04;;;;;;;29.00;12.10;;;;;;;7.07;89.92;101040.06;7394334;19;20029;-65
2023/12/09 06:27:32;;;;;;;26.60;11.93;;;;;;;7.06;89.58;101045.44;7394180;19;20039;-65
2023/12/09 06:30:00;;;;;;;25.10;11.00;;;;;;;7.16;89.19;101045.75;7394738;19;20014;-65
2023/12/09 06:32:28;;;;;;;27.48;10.95;;;;;;;7.13;88.89;101048.56;7396137;19;20018;-65
2023/12/09 06:34:56;;;;;;;27.38;11.57;;;;;;;7.13;88.96;101041.50;7395452;19;20427;-66
2023/12/09 06:37:24;;;;;;;21.90;10.82;;;;;;;7.19;88.76;101048.22;7395262;19;20375;-65
2023/12/09 06:39:52;;;;;;;25.25;11.23;;;;;;;7.15;89.02;101055.44;7394283;19;20026;-66
2023/12/09 06:42:20;;;;;;;27.00;11.52;;;;;;;7.06;89.31;101045.44;7395444;19;20019;-65
2023/12/09 06:44:48;;;;;;;23.75;10.68;;;;;;;7.08;89.42;101048.81;7393653;19;20030;-65
2023/12/09 06:47:16;;;;;;;26.48;11.27;;;;;;;7.14;89.00;101052.91;7395199;19;20460;-65
2023/12/09 06:49:44;;;;;;;21.88;9.82;;;;;;;7.13;88.97;101048.56;7394718;19;20519;-65
2023/12/09 06:52:12;;;;;;;24.92;10.27;;;;;;;7.13;89.28;101045.91;7394220;19;20348;-65
2023/12/09 06:54:40;;;;;;;21.10;10.90;;;;;;;7.17;89.01;101042.19;7395078;19;20014;-67
2023/12/09 06:57:08;;;;;;;25.17;10.70;;;;;;;7.18;88.96;101034.22;7394489;19;20520;-65
2023/12/09 06:59:36;;;;;;;23.13;10.93;;;;;;;7.13;89.08;101027.47;7392988;19;20090;-65
2023/12/09 07:02:03;;;;;;;23.00;10.38;;;;;;;7.13;88.87;101030.13;7393738;19;20030;-66
2023/12/09 07:04:33;;;;;;;31.13;11.10;;;;;;;7.11;89.14;101027.59;7394968;19;20432;-65
2023/12/09 07:07:01;;;;;;;22.30;10.38;;;;;;;7.15;89.34;101023.00;7394421;19;20019;-65
2023/12/09 07:09:29;;;;;;;28.75;10.55;;;;;;;7.17;88.94;101021.13;7393978;19;20023;-66
2023/12/09 07:11:57;;;;;;;28.38;11.05;;;;;;;7.23;88.79;101012.88;7393557;19;20019;-65
2023/12/09 07:14:29;;;;;;;22.92;10.90;;;;;;;7.24;88.75;101014.56;7394145;19;20021;-66
2023/12/09 07:16:57;;;;;;;28.10;11.20;;;;;;;7.26;88.70;101010.94;7393904;19;20082;-65
2023/12/09 07:19:25;;;;;;;25.17;10.98;;;;;;;7.23;88.60;101007.63;7393706;19;20416;-65
2023/12/09 07:21:53;;;;;;;19.80;9.85;;;;;;;7.25;88.71;101011.00;7393203;19;20472;-64
2023/12/09 07:24:21;;;;;;;26.40;10.27;;;;;;;7.18;88.75;101005.25;7393047;19;20015;-65
2023/12/09 07:26:49;;;;;;;23.23;10.90;;;;;;;7.21;89.10;101009.47;7394476;19;20479;-65
2023/12/09 07:29:17;;;;;;;22.88;10.27;;;;;;;7.21;89.00;101009.47;7392635;19;20477;-65
2023/12/09 07:31:45;;;;;;;24.20;9.93;;;;;;;7.26;88.73;100997.75;7390773;19;20043;-65
2023/12/09 07:34:16;;;;;;;22.55;9.48;;;;;;;7.23;88.83;100994.44;7391651;19;20018;-65
2023/12/09 07:36:44;;;;;;;25.20;10.55;;;;;;;7.27;88.50;100995.97;7393722;19;20037;-65
2023/12/09 07:39:12;;;;;;;21.90;10.00;;;;;;;7.25;88.50;100988.16;7393311;19;20030;-65
2023/12/09 07:41:41;;;;;;;23.85;10.30;;;;;;;7.30;88.55;100985.28;7391367;19;20011;-65
2023/12/09 07:44:09;;;;;;;22.90;9.43;;;;;;;7.29;88.69;100980.94;7393225;19;20025;-65
2023/12/09 07:46:37;;;;;;;22.83;9.32;;;;;;;7.31;88.65;100973.78;7391220;19;20102;-66
2023/12/09 07:49:05;;;;;;;23.63;8.45;;;;;;;7.33;88.35;100972.78;7393145;19;20433;-65
2023/12/09 07:51:33;;;;;;;19.20;8.48;;;;;;;7.40;88.20;100969.78;7390689;19;20015;-65
2023/12/09 07:54:01;;;;;;;22.65;8.98;;;;;;;7.39;88.23;100971.56;7393166;19;20034;-69
2023/12/09 07:56:29;;;;;;;21.88;8.90;;;;;;;7.43;88.04;100978.34;7392817;19;20018;-68
2023/12/09 07:58:57;;;;;;;20.65;8.50;;;;;;;7.38;88.34;100983.06;7393269;19;20021;-68
2023/12/09 08:01:26;;;;;;;23.88;8.05;;;;;;;7.42;88.43;100981.94;7389388;19;20022;-67
2023/12/09 08:03:54;;;;;;;21.80;8.38;;;;;;;7.41;88.21;100982.88;7392736;19;20025;-67
2023/12/09 08:06:25;;;;;;;15.68;7.05;;;;;;;7.40;88.22;100985.59;7391156;19;20031;-67
2023/12/09 08:08:52;;;;;;;19.33;7.32;;;;;;;7.46;88.13;100983.47;7392603;19;20014;-65
2023/12/09 08:11:20;;;;;;;17.30;7.20;;;;;;;7.51;87.50;100978.75;7388756;19;20082;-65
2023/12/09 08:13:48;;;;;;;14.88;6.20;;;;;;;7.52;87.82;100980.47;7392366;19;20040;-65
2023/12/09 08:16:16;;;;;;;18.48;7.10;;;;;;;7.48;87.81;100978.97;7390683;19;20035;-65
2023/12/09 08:18:44;;;;;;;22.05;6.95;;;;;;;7.47;87.56;100979.88;7391938;19;20015;-65
2023/12/09 08:21:13;;;;;;;17.98;6.47;;;;;;;7.39;87.98;100973.34;7389940;19;20021;-65
2023/12/09 08:23:40;;;;;;;15.90;6.50;;;;;;;7.45;87.92;100973.03;7392505;19;20018;-65
2023/12/09 08:26:15;;;;;;;18.55;6.68;;;;;;;7.47;87.62;100979.88;7391735;19;20010;-65
2023/12/09 08:28:43;;;;;;;15.18;5.82;;;;;;;7.54;87.55;100975.13;7391499;19;20483;-65
2023/12/09 08:31:11;;;;;;;19.08;6.15;;;;;;;7.54;87.31;100968.06;7389693;19;20436;-69
2023/12/09 08:33:40;;;;;;;18.85;6.05;;;;;;;7.60;87.20;100960.75;7391616;19;20543;-69
2023/12/09 08:36:08;;;;;;;16.58;5.45;;;;;;;7.58;86.92;100952.91;7388169;19;20014;-69
2023/12/09 08:38:36;;;;;;;19.77;6.00;;;;;;;7.61;87.09;100944.84;7391308;19;20578;-69
2023/12/09 08:41:04;;;;;;;18.77;6.03;;;;;;;7.62;87.00;100946.53;7389805;19;20026;-62
2023/12/09 08:43:32;;;;;;;18.83;5.72;;;;;;;7.64;86.44;100951.72;7391412;19;20491;-64
2023/12/09 08:46:00;;;;;;;18.17;5.03;;;;;;;7.63;86.70;100944.72;7392040;19;20104;-65
2023/12/09 08:48:29;;;;;;;18.48;5.43;;;;;;;7.73;86.41;100951.19;7391462;19;20499;-64
2023/12/09 08:50:57;;;;;;;20.35;6.57;;;;;;;7.62;86.72;100946.53;7389872;19;20018;-66
2023/12/09 08:53:25;;;;;;;17.17;7.00;;;;;;;7.55;86.62;100942.53;7391120;19;20032;-65
2023/12/09 08:55:53;;;;;;;20.42;6.57;;;;;;;7.48;87.28;100936.81;7390977;19;20031;-65
2023/12/09 08:58:21;;;;;;;17.83;4.97;;;;;;;7.42;87.25;100941.56;7391842;19;20010;-65
2023/12/09 09:00:49;;;;;;;18.63;5.13;;;;;;;7.44;87.10;100932.66;7389568;19;20023;-67
2023/12/09 09:03:20;;;;;;;14.75;4.53;;;;;;;7.50;86.80;100923.53;7390143;19;20482;-65
2023/12/09 09:05:48;;;;;;;16.73;5.03;;;;;;;7.50;86.53;100919.09;7391324;19;20034;-66
2023/12/09 09:08:15;;;;;;;17.10;4.53;;;;;;;7.41;86.82;100922.28;7391540;19;20522;-66
2023/12/09 09:10:45;;;;;;;12.98;4.53;;;;;;;7.43;86.96;100917.75;7388236;19;20030;-66
2023/12/09 09:13:12;;;;;;;22.10;4.82;;;;;;;7.45;86.73;100912.41;7391132;19;20018;-66
2023/12/09 09:15:40;;;;;;;17.75;4.97;;;;;;;7.39;86.64;100918.88;7389138;19;20481;-65
2023/12/09 09:18:08;;;;;;;14.15;4.20;;;;;;;7.47;86.45;100913.16;7391070;19;20048;-66
2023/12/09 09:20:36;;;;;;;14.90;4.13;;;;;;;7.48;86.53;100918.34;7387563;19;20029;-64
2023/12/09 09:23:04;;;;;;;13.20;3.83;;;;;;;7.49;85.98;100909.50;7390380;19;20026;-64
2023/12/09 09:25:32;;;;;;;15.73;4.35;;;;;;;7.57;85.86;100912.53;7389628;19;20777;-65
2023/12/09 09:27:59;;;;;;;14.75;3.92;;;;;;;7.64;85.50;100909.56;7390072;19;20015;-64
2023/12/09 09:30:29;;;;;;;13.52;4.00;;;;;;;7.70;85.41;100906.53;7387044;19;20014;-64
2023/12/09 09:32:56;;;;;;;14.35;3.97;;;;;;;7.70;85.10;100909.19;7390268;19;20026;-63
2023/12/09 09:35:24;;;;;;;14.10;3.92;;;;;;;7.56;85.47;100902.94;7390507;19;20426;-67
2023/12/09 09:37:52;;;;;;;12.48;3.42;;;;;;;7.62;85.19;100895.59;7390485;19;20118;-67
2023/12/09 09:40:20;;;;;;;12.20;3.53;;;;;;;7.61;85.07;100899.19;7388122;19;20480;-67
2023/12/09 09:43:05;;;;;;;12.65;3.80;;;;;;;7.65;84.34;100891.00;7390781;19;20007;-67
2023/12/09 09:45:32;;;;;;;12.15;3.42;;;;;;;7.70;84.69;100881.03;7390312;19;20025;-66
2023/12/09 09:48:07;;;;;;;13.13;3.63;;;;;;;7.77;84.26;100881.50;7393841;19;20378;-66
2023/12/09 09:50:41;;;;;;;14.32;3.70;;;;;;;7.82;84.14;100876.81;7395549;19;20020;-66
2023/12/09 09:53:12;;;;;;;9.98;3.30;;;;;;;7.86;83.55;100878.34;7397957;19;20031;-65
2023/12/09 09:55:43;;;;;;;12.27;3.70;;;;;;;7.85;83.65;100874.00;7397943;19;20031;-64
2023/12/09 09:58:12;;;;;;;13.82;3.28;;;;;;;7.85;83.45;100865.25;7398108;19;20035;-66
2023/12/09 10:00:41;;;;;;;11.55;3.28;;;;;;;7.73;83.50;100867.66;7395955;19;20018;-65
2023/12/09 10:03:09;;;;;;;11.82;3.40;;;;;;;7.73;83.65;100864.19;7398219;19;20362;-66
2023/12/09 10:05:37;;;;;;;11.00;3.60;;;;;;;7.79;83.45;100851.50;7397975;19;20103;-66
2023/12/09 10:08:05;;;;;;;9.98;3.35;;;;;;;7.77;83.22;100844.59;7398558;19;20019;-65
2023/12/09 10:10:34;;;;;;;11.52;3.30;;;;;;;7.83;82.87;100841.63;7398746;19;20035;-65
2023/12/09 10:13:02;;;;;;;13.70;3.83;;;;;;;7.88;82.63;100849.25;7398232;19;20018;-63
2023/12/09 10:15:31;;;;;;;11.45;3.25;;;;;;;7.90;82.40;100837.66;7397751;19;20026;-65
2023/12/09 10:18:01;;;;;;;12.77;3.38;;;;;;;7.98;82.03;100832.75;7398882;19;20022;-67
2023/12/09 10:20:30;;;;;;;14.52;3.78;;;;;;;8.06;81.89;100835.78;7396493;19;20018;-67
2023/12/09 10:23:00;;;;;;;13.32;3.60;;;;;;;8.10;81.75;100822.41;7397555;19;20086;-66
2023/12/09 10:25:28;;;;;;;10.32;3.28;;;;;;;8.16;81.18;100817.56;7396795;19;20048;-65
2023/12/09 10:27:57;;;;;;;13.27;3.72;;;;;;;8.15;81.51;100815.03;7396350;19;20086;-65
2023/12/09 10:30:25;;;;;;;11.25;3.90;;;;;;;8.16;81.27;100803.53;7394858;19;20027;-66
2023/12/09 10:32:53;;;;;;;11.57;3.00;;;;;;;8.16;81.49;100796.47;7394222;19;20389;-66
2023/12/09 10:35:21;;;;;;;9.20;2.92;;;;;;;8.08;81.41;100801.38;7394184;19;20014;-65
2023/12/09 10:37:50;;;;;;;12.18;3.10;;;;;;;8.02;81.33;100793.88;7395862;19;20043;-66
2023/12/09 10:40:21;;;;;;;12.98;3.83;;;;;;;8.07;81.30;100784.72;7394067;19;20030;-67
2023/12/09 10:42:53;;;;;;;9.85;3.10;;;;;;;8.11;81.29;100787.16;7395839;19;20093;-66
2023/12/09 10:45:21;;;;;;;14.02;3.20;;;;;;;8.09;81.18;100773.22;7394804;19;20011;-65
2023/12/09 10:47:49;;;;;;;11.15;3.00;;;;;;;8.05;81.33;100768.16;7393643;19;20023;-65
2023/12/09 10:50:17;;;;;;;9.88;2.72;;;;;;;8.11;80.81;100753.72;7391817;19;20026;-65
2023/12/09 10:52:45;;;;;;;8.15;2.63;;;;;;;8.13;81.23;100738.66;7393671;19;20023;-66
2023/12/09 10:55:14;;;;;;;10.73;3.10;;;;;;;8.14;80.81;100728.94;7394847;19;20409;-66
2023/12/09 10:57:43;;;;;;;9.80;3.10;;;;;;;8.14;80.11;100729.78;7395090;19;20014;-66
2023/12/09 11:00:14;;;;;;;10.43;2.83;;;;;;;8.08;80.61;100727.53;7390191;19;20014;-66
2023/12/09 11:02:46;;;;;;;8.60;2.97;;;;;;;8.08;80.08;100719.63;7394606;19;20047;-66
2023/12/09 11:05:15;;;;;;;7.78;2.60;;;;;;;8.06;80.38;100713.63;7394963;19;20432;-67
2023/12/09 11:07:45;;;;;;;9.27;2.75;;;;;;;8.03;80.55;100709.38;7394897;19;20039;-67
2023/12/09 11:10:14;;;;;;;8.85;3.10;;;;;;;7.92;80.69;100696.03;7393860;19;20472;-67
2023/12/09 11:12:46;;;;;;;12.98;2.95;;;;;;;7.87;80.71;100698.13;7392027;19;20090;-66
2023/12/09 11:15:13;;;;;;;11.82;3.15;;;;;;;7.88;80.84;100691.91;7394080;19;20015;-65
2023/12/09 11:17:44;;;;;;;9.52;2.47;;;;;;;7.90;80.57;100674.19;7396300;19;20023;-57
2023/12/09 11:20:15;;;;;;;8.60;2.70;;;;;;;7.91;79.90;100664.50;7393880;19;20076;-58
2023/12/09 11:22:45;;;;;;;8.80;2.97;;;;;;;8.00;80.21;100669.16;7393814;19;20022;-59
2023/12/09 11:25:25;;;;;;;10.27;2.40;;;;;;;8.13;79.43;100651.63;7395499;19;20018;-58
2023/12/09 11:27:54;;;;;;;11.02;2.60;;;;;;;8.16;78.76;100647.91;7396173;19;20053;-59